Time;durP1;ratioP1;P1;durP2;ratioP2;P2;SDS_P1;SDS_P2;PMS_P1;PMS_P2;Temp;Humidity;BMP_temperature;BMP_pressure;BME280_temperature;BME280_humidity;BME280_pressure;Samples;Min_cycle;Max_cycle;Signal;HPM_P1;HPM_P2
2024/03/09 00:00:32;;;;;;;;;;;;;;;2.88;100.00;95385.91;5046734;28;20132;-80
2024/03/09 00:03:01;;;;;;;;;;;;;;;2.89;100.00;95384.91;5064958;28;19937;-80
2024/03/09 00:05:28;;;;;;;;;;;;;;;2.89;100.00;95382.31;5065235;28;19940;-80
2024/03/09 00:07:55;;;;;;;;;;;;;;;2.91;100.00;95397.66;5046398;28;19967;-78
2024/03/09 00:10:21;;;;;;;;;;;;;;;2.90;100.00;95399.44;5047291;28;19938;-69
2024/03/09 00:12:48;;;;;;;;;;;;;;;2.90;100.00;95401.22;5046575;28;20234;-73
2024/03/09 00:15:15;;;;;;;;;;;;;;;2.90;100.00;95399.44;5064779;28;19934;-74
2024/03/09 00:17:42;;;;;;;;;;;;;;;2.90;100.00;95386.50;5029957;28;20121;-74
2024/03/09 00:20:25;;;;;;;;;;;;;;;2.92;100.00;95388.88;5046447;28;19940;-74
2024/03/09 00:22:55;;;;;;;;;;;;;;;2.94;100.00;95394.66;5047035;28;19938;-73
2024/03/09 00:25:22;;;;;;;;;;;;;;;2.95;100.00;95394.47;5047185;28;19940;-74
2024/03/09 00:27:48;;;;;;;;;;;;;;;2.95;100.00;95388.50;5047068;28;20229;-73
2024/03/09 00:30:22;;;;;;;;;;;;;;;2.95;100.00;95389.28;5064076;28;19947;-73
2024/03/09 00:32:49;;;;;;;;;;;;;;;2.96;100.00;95385.72;5064585;28;19935;-73
2024/03/09 00:35:15;;;;;;;;;;;;;;;2.98;100.00;95398.47;5064006;28;19935;-73
2024/03/09 00:37:41;;;;;;;;;;;;;;;2.97;100.00;95389.91;5063943;28;19964;-72
2024/03/09 00:40:08;;;;;;;;;;;;;;;2.99;100.00;95398.25;5064462;28;19939;-73
2024/03/09 00:42:35;;;;;;;;;;;;;;;2.99;100.00;95398.25;5064385;28;19931;-73
2024/03/09 00:45:02;;;;;;;;;;;;;;;3.00;100.00;95386.13;5064671;28;19945;-74
2024/03/09 00:47:28;;;;;;;;;;;;;;;3.01;100.00;95383.34;5046600;28;20239;-71
2024/03/09 00:49:56;;;;;;;;;;;;;;;3.01;100.00;95388.50;5064322;28;19930;-80
2024/03/09 00:52:25;;;;;;;;;;;;;;;3.03;100.00;95389.13;5046299;28;19962;-80
2024/03/09 00:54:51;;;;;;;;;;;;;;;3.05;100.00;95381.16;5063796;28;19940;-80
2024/03/09 00:57:18;;;;;;;;;;;;;;;3.06;100.00;95380.16;5063786;28;19941;-80
2024/03/09 00:59:45;;;;;;;;;;;;;;;3.08;100.00;95380.75;5063983;28;19938;-80
2024/03/09 01:02:11;;;;;;;;;;;;;;;3.08;100.00;95372.19;5064199;28;20004;-80
2024/03/09 01:04:37;;;;;;;;;;;;;;;3.09;100.00;95368.59;5063683;28;19928;-71
2024/03/09 01:07:04;;;;;;;;;;;;;;;3.08;100.00;95362.63;5046629;28;19940;-79
2024/03/09 01:09:30;;;;;;;;;;;;;;;3.09;100.00;95361.63;5063649;28;19957;-79
2024/03/09 01:11:56;;;;;;;;;;;;;;;3.10;100.00;95359.84;5063611;28;19935;-79
2024/03/09 01:14:25;;;;;;;;;;;;;;;3.10;100.00;95365.03;5064377;28;20214;-79
2024/03/09 01:16:51;;;;;;;;;;;;;;;3.08;100.00;95362.63;5062824;28;19947;-79
2024/03/09 01:19:18;;;;;;;;;;;;;;;3.05;100.00;95363.81;5063561;28;19935;-79
2024/03/09 01:21:46;;;;;;;;;;;;;;;3.02;100.00;95360.81;5064357;28;19933;-73
2024/03/09 01:24:12;;;;;;;;;;;;;;;3.01;100.00;95356.66;5064039;28;20086;-71
2024/03/09 01:26:38;;;;;;;;;;;;;;;3.01;100.00;95354.06;5045787;28;19937;-80
2024/03/09 01:29:04;;;;;;;;;;;;;;;3.00;100.00;95361.03;5063347;28;19949;-79
2024/03/09 01:31:32;;;;;;;;;;;;;;;3.02;100.00;95361.63;5063441;28;19989;-80
2024/03/09 01:33:58;;;;;;;;;;;;;;;3.02;100.00;95361.63;5064202;28;19939;-80
2024/03/09 01:36:24;;;;;;;;;;;;;;;3.03;100.00;95358.03;5064047;28;19937;-79
2024/03/09 01:38:50;;;;;;;;;;;;;;;3.04;100.00;95358.81;5063954;28;19960;-80
2024/03/09 01:41:16;;;;;;;;;;;;;;;3.05;100.00;95365.63;5063405;28;20226;-74
2024/03/09 01:43:42;;;;;;;;;;;;;;;3.04;100.00;95351.88;5045633;28;19945;-73
2024/03/09 01:46:10;;;;;;;;;;;;;;;3.06;100.00;95349.06;5063844;28;20215;-72
2024/03/09 01:48:39;;;;;;;;;;;;;;;3.08;100.00;95349.66;5063580;28;19957;-72
2024/03/09 01:51:05;;;;;;;;;;;;;;;3.09;100.00;95350.47;5067213;28;19936;-72
2024/03/09 01:53:31;;;;;;;;;;;;;;;3.10;100.00;95355.44;5066926;28;19937;-73
2024/03/09 01:55:59;;;;;;;;;;;;;;;3.12;100.00;95350.06;5067120;28;19947;-72
2024/03/09 01:58:25;;;;;;;;;;;;;;;3.13;100.00;95351.66;5067339;28;19933;-71
2024/03/09 02:00:56;;;;;;;;;;;;;;;3.13;100.00;95346.47;5049290;28;19942;-78
2024/03/09 02:03:22;;;;;;;;;;;;;;;3.14;100.00;95348.88;5048821;28;19949;-74
2024/03/09 02:05:50;;;;;;;;;;;;;;;3.15;100.00;95344.50;5067145;28;19940;-74
2024/03/09 02:08:20;;;;;;;;;;;;;;;3.15;100.00;95339.31;5066781;28;20153;-74
2024/03/09 02:10:47;;;;;;;;;;;;;;;3.15;100.00;95340.13;5067085;28;19942;-74
2024/03/09 02:13:13;;;;;;;;;;;;;;;3.15;100.00;95329.75;5066548;28;20241;-74
2024/03/09 02:15:44;;;;;;;;;;;;;;;3.16;100.00;95333.16;5067000;28;19940;-75
2024/03/09 02:18:10;;;;;;;;;;;;;;;3.16;100.00;95327.97;5049316;28;19942;-79
2024/03/09 02:20:38;;;;;;;;;;;;;;;3.15;100.00;95322.00;5066945;28;19934;-72
2024/03/09 02:23:06;;;;;;;;;;;;;;;3.14;100.00;95320.38;5066537;28;20228;-72
2024/03/09 02:25:32;;;;;;;;;;;;;;;3.14;100.00;95319.59;5049369;28;20110;-73
2024/03/09 02:27:58;;;;;;;;;;;;;;;3.12;100.00;95308.63;5066476;28;19952;-73
2024/03/09 02:30:24;;;;;;;;;;;;;;;3.11;100.00;95304.44;5066305;28;20121;-73
2024/03/09 02:32:53;;;;;;;;;;;;;;;3.12;100.00;95299.06;5066220;28;19945;-72
2024/03/09 02:35:20;;;;;;;;;;;;;;;3.11;100.00;95299.25;5066933;28;19953;-68
2024/03/09 02:37:46;;;;;;;;;;;;;;;3.08;100.00;95290.09;5048169;28;19972;-71
2024/03/09 02:40:12;;;;;;;;;;;;;;;3.06;100.00;95281.72;5048904;28;19942;-79
2024/03/09 02:42:39;;;;;;;;;;;;;;;3.08;100.00;95286.72;5066015;28;20241;-80
2024/03/09 02:45:06;;;;;;;;;;;;;;;3.08;100.00;95286.72;5066221;28;20125;-80
2024/03/09 02:47:31;;;;;;;;;;;;;;;3.10;100.00;95271.78;5065888;28;19958;-80
2024/03/09 02:49:57;;;;;;;;;;;;;;;3.09;100.00;95263.22;5066382;28;19939;-79
2024/03/09 02:52:23;;;;;;;;;;;;;;;3.14;100.00;95258.22;5065835;28;19934;-79
2024/03/09 02:54:50;;;;;;;;;;;;;;;3.18;100.00;95274.97;5066042;28;20136;-79
2024/03/09 02:57:17;;;;;;;;;;;;;;;3.22;100.00;95299.47;5066452;28;19934;-68
2024/03/09 02:59:46;;;;;;;;;;;;;;;3.22;100.00;95309.81;5065197;28;19937;-69
2024/03/09 03:03:46;;;;;;;;;;;;;;;3.27;100.00;95282.53;5065757;28;19946;-68
2024/03/09 03:05:00;;;;;;;;;;;;;;;3.33;100.00;95273.94;5066100;28;19938;-69
2024/03/09 03:07:26;;;;;;;;;;;;;;;3.35;100.00;95244.25;5066000;28;19941;-68
2024/03/09 03:09:57;;;;;;;;;;;;;;;3.40;100.00;95241.84;5065439;28;19959;-68
2024/03/09 03:12:22;;;;;;;;;;;;;;;3.48;100.00;95235.66;5065447;28;19941;-69
2024/03/09 03:14:50;;;;;;;;;;;;;;;3.57;100.00;95242.22;5065391;28;20218;-73
2024/03/09 03:17:16;;;;;;;;;;;;;;;3.62;100.00;95233.81;5065345;28;19961;-74
2024/03/09 03:19:41;;;;;;;;;;;;;;;3.69;100.00;95250.16;5065300;28;20223;-74
2024/03/09 03:22:07;;;;;;;;;;;;;;;3.74;100.00;95246.94;5065239;28;19939;-74
2024/03/09 03:24:33;;;;;;;;;;;;;;;3.77;100.00;95241.34;5030922;28;20006;-73
2024/03/09 03:26:59;;;;;;;;;;;;;;;3.82;100.00;95239.75;5065099;28;19943;-73
2024/03/09 03:29:27;;;;;;;;;;;;;;;3.84;100.00;95235.16;5065045;28;19957;-73
2024/03/09 03:31:55;;;;;;;;;;;;;;;3.90;100.00;95225.75;5047891;28;20214;-72
2024/03/09 03:34:21;;;;;;;;;;;;;;;3.95;100.00;95212.97;5065865;28;20106;-77
2024/03/09 03:36:47;;;;;;;;;;;;;;;4.01;100.00;95193.16;5064770;28;19964;-78
2024/03/09 03:39:13;;;;;;;;;;;;;;;4.10;100.00;95191.16;5065215;28;19941;-77
2024/03/09 03:41:39;;;;;;;;;;;;;;;4.20;100.00;95184.50;5064863;28;19934;-77
2024/03/09 03:44:05;;;;;;;;;;;;;;;4.29;100.00;95181.66;5065383;28;19940;-77
2024/03/09 03:46:31;;;;;;;;;;;;;;;4.34;100.00;95174.81;5065615;28;19930;-77
2024/03/09 03:48:57;;;;;;;;;;;;;;;4.40;100.00;95170.59;5064983;28;19953;-80
2024/03/09 03:51:23;;;;;;;;;;;;;;;4.42;100.00;95164.19;5064707;28;19945;-79
2024/03/09 03:53:49;;;;;;;;;;;;;;;4.41;100.00;95143.63;5065382;28;20011;-71
2024/03/09 03:56:14;;;;;;;;;;;;;;;4.39;100.00;95127.47;5031160;28;19936;-71
2024/03/09 03:58:47;;;;;;;;;;;;;;;4.35;100.00;95123.72;5047478;28;19943;-71
2024/03/09 04:01:13;;;;;;;;;;;;;;;4.36;100.00;95123.50;5030945;28;19944;-71
2024/03/09 04:03:38;;;;;;;;;;;;;;;4.40;100.00;95124.66;5030533;28;19947;-71
2024/03/09 04:06:07;;;;;;;;;;;;;;;4.48;100.00;95131.41;5047306;28;19945;-70
2024/03/09 04:08:33;;;;;;;;;;;;;;;4.49;100.00;95135.59;5046566;28;20268;-73
2024/03/09 04:10:59;;;;;;;;;;;;;;;4.47;100.00;95143.59;5065114;28;19936;-72
2024/03/09 04:13:25;;;;;;;;;;;;;;;4.47;100.00;95158.34;5064030;28;19946;-72
2024/03/09 04:15:52;;;;;;;;;;;;;;;4.39;100.00;95149.06;5064297;28;19930;-72
2024/03/09 04:18:18;;;;;;;;;;;;;;;4.30;100.00;95158.06;5064258;28;19948;-72
2024/03/09 04:20:44;;;;;;;;;;;;;;;4.16;100.00;95170.34;5064220;28;20117;-73
2024/03/09 04:23:15;;;;;;;;;;;;;;;4.04;100.00;95182.41;5064169;28;19939;-72
2024/03/09 04:25:44;;;;;;;;;;;;;;;3.88;100.00;95180.28;5064405;28;19940;-71
2024/03/09 04:28:15;;;;;;;;;;;;;;;3.78;100.00;95191.06;5047057;28;20122;-81
2024/03/09 04:30:42;;;;;;;;;;;;;;;3.70;100.00;95201.72;5046409;28;19943;-72
2024/03/09 04:33:11;;;;;;;;;;;;;;;3.66;100.00;95196.91;5064834;28;19944;-72
2024/03/09 04:35:37;;;;;;;;;;;;;;;3.62;100.00;95190.56;5064014;28;20217;-72
2024/03/09 04:38:04;;;;;;;;;;;;;;;3.57;100.00;95197.34;5063758;28;19962;-72
2024/03/09 04:40:30;;;;;;;;;;;;;;;3.56;100.00;95208.72;5063942;28;20228;-72
2024/03/09 04:42:56;;;;;;;;;;;;;;;3.49;100.00;95202.78;5064654;28;19939;-72
2024/03/09 04:45:25;;;;;;;;;;;;;;;3.44;100.00;95198.19;5063912;28;19946;-82
2024/03/09 04:47:51;;;;;;;;;;;;;;;3.43;100.00;95202.56;5063782;28;20122;-72
2024/03/09 04:50:21;;;;;;;;;;;;;;;3.43;100.00;95199.97;5063839;28;19944;-72
2024/03/09 04:52:47;;;;;;;;;;;;;;;3.39;100.00;95196.19;5063824;28;19938;-72
2024/03/09 04:55:14;;;;;;;;;;;;;;;3.35;100.00;95200.19;5046653;28;19934;-72
2024/03/09 04:57:43;;;;;;;;;;;;;;;3.32;100.00;95198.03;5063786;28;20154;-73
2024/03/09 05:00:14;;;;;;;;;;;;;;;3.35;100.00;95200.19;5064283;28;19936;-72
2024/03/09 05:02:44;;;;;;;;;;;;;;;3.36;100.00;95196.63;5063997;28;19934;-72
2024/03/09 05:05:14;;;;;;;;;;;;;;;3.39;100.00;95196.19;5063674;28;20120;-69
2024/03/09 05:07:46;;;;;;;;;;;;;;;3.43;100.00;95197.38;5064024;28;19940;-74
2024/03/09 05:10:16;;;;;;;;;;;;;;;3.44;100.00;95188.63;5063652;28;19962;-73
2024/03/09 05:12:42;;;;;;;;;;;;;;;3.47;100.00;95195.19;5064358;28;20120;-74
2024/03/09 05:15:07;;;;;;;;;;;;;;;3.48;100.00;95193.38;5063596;28;19942;-74
2024/03/09 05:17:33;;;;;;;;;;;;;;;3.46;100.00;95191.00;5063515;28;20216;-73
2024/03/09 05:20:10;;;;;;;;;;;;;;;3.48;100.00;95195.97;5045852;28;20323;-74
2024/03/09 05:22:38;;;;;;;;;;;;;;;3.45;100.00;95200.56;5064040;28;19991;-74
2024/03/09 05:25:10;;;;;;;;;;;;;;;3.41;100.00;95193.41;5066360;28;19936;-72
2024/03/09 05:27:43;;;;;;;;;;;;;;;3.38;100.00;95192.03;5067722;28;19934;-73
2024/03/09 05:30:10;;;;;;;;;;;;;;;3.37;100.00;95193.00;5067946;28;20115;-72
2024/03/09 05:32:36;;;;;;;;;;;;;;;3.36;100.00;95188.03;5067836;28;19942;-72
2024/03/09 05:35:03;;;;;;;;;;;;;;;3.32;100.00;95179.88;5067399;28;19935;-73
2024/03/09 05:37:28;;;;;;;;;;;;;;;3.30;100.00;95181.06;5049342;28;20256;-72
2024/03/09 05:39:55;;;;;;;;;;;;;;;3.26;100.00;95172.94;5067990;28;19939;-72
2024/03/09 05:42:21;;;;;;;;;;;;;;;3.24;100.00;95182.69;5050076;28;19952;-74
2024/03/09 05:44:47;;;;;;;;;;;;;;;3.20;100.00;95179.69;5050028;28;19948;-73
2024/03/09 05:47:13;;;;;;;;;;;;;;;3.17;100.00;95176.72;5049209;28;19947;-74
2024/03/09 05:49:39;;;;;;;;;;;;;;;3.14;100.00;95170.16;5066873;28;19959;-74
2024/03/09 05:52:05;;;;;;;;;;;;;;;3.09;100.00;95171.75;5067498;28;20013;-74
2024/03/09 05:54:33;;;;;;;;;;;;;;;3.05;100.00;95166.97;5067424;28;20221;-74
2024/03/09 05:56:59;;;;;;;;;;;;;;;3.02;100.00;95174.34;5066799;28;19936;-75
2024/03/09 05:59:26;;;;;;;;;;;;;;;2.98;100.00;95160.22;5066842;28;19947;-69
2024/03/09 06:01:52;;;;;;;;;;;;;;;2.94;100.00;95159.84;5066807;28;19932;-74
2024/03/09 06:04:18;;;;;;;;;;;;;;;2.90;100.00;95170.78;5048857;28;19943;-75
2024/03/09 06:06:43;;;;;;;;;;;;;;;2.85;100.00;95185.13;5067213;28;19938;-74
2024/03/09 06:09:09;;;;;;;;;;;;;;;2.83;100.00;95188.91;5048775;28;19969;-74
2024/03/09 06:11:35;;;;;;;;;;;;;;;2.82;100.00;95197.69;5066577;28;20141;-75
2024/03/09 06:14:01;;;;;;;;;;;;;;;2.80;100.00;95192.69;5066813;28;19940;-74
2024/03/09 06:16:30;;;;;;;;;;;;;;;2.77;100.00;95190.53;5066791;28;20001;-79
2024/03/09 06:18:56;;;;;;;;;;;;;;;2.75;100.00;95189.09;5066481;28;19941;-73
2024/03/09 06:21:22;;;;;;;;;;;;;;;2.78;100.00;95184.34;5066427;28;19935;-74
2024/03/09 06:23:48;;;;;;;;;;;;;;;3.08;100.00;95186.50;5066894;28;19959;-73
2024/03/09 06:26:14;;;;;;;;;;;;;;;3.66;100.00;95176.19;5066331;28;20225;-74
2024/03/09 06:28:41;;;;;;;;;;;;;;;4.33;100.00;95167.25;5066752;28;19955;-74
2024/03/09 06:31:08;;;;;;;;;;;;;;;4.95;100.00;95141.38;5066244;28;19937;-74
2024/03/09 06:33:34;;;;;;;;;;;;;;;5.54;100.00;95126.16;5066678;28;19945;-74
2024/03/09 06:36:04;;;;;;;;;;;;;;;6.02;100.00;95115.75;5048050;28;20015;-73
2024/03/09 06:38:35;;;;;;;;;;;;;;;6.49;100.00;95099.47;5066028;28;19967;-75
2024/03/09 06:41:01;;;;;;;;;;;;;;;6.91;100.00;95101.97;5048498;28;19938;-75
2024/03/09 06:43:27;;;;;;;;;;;;;;;7.26;100.00;95085.47;5048277;28;20250;-74
2024/03/09 06:45:56;;;;;;;;;;;;;;;7.60;100.00;95078.59;5032310;28;19946;-74
2024/03/09 06:48:23;;;;;;;;;;;;;;;7.91;100.00;95066.09;5047953;28;19960;-75
2024/03/09 06:50:49;;;;;;;;;;;;;;;8.25;100.00;95069.56;5065826;28;19935;-74
2024/03/09 06:53:15;;;;;;;;;;;;;;;8.53;100.00;95055.63;5066585;28;19936;-71
2024/03/09 06:55:41;;;;;;;;;;;;;;;8.81;100.00;95046.09;5048039;28;19938;-78
2024/03/09 06:58:07;;;;;;;;;;;;;;;9.05;99.19;95038.03;5066213;28;19938;-77
2024/03/09 07:00:37;;;;;;;;;;;;;;;9.25;96.70;95014.75;5066376;28;19971;-78
2024/03/09 07:03:04;;;;;;;;;;;;;;;9.48;95.67;95016.28;5031328;28;19952;-79
2024/03/09 07:05:30;;;;;;;;;;;;;;;9.70;95.65;95015.47;5047639;28;19995;-78
2024/03/09 07:07:59;;;;;;;;;;;;;;;9.89;95.99;95014.09;5048542;28;20133;-78
2024/03/09 07:10:27;;;;;;;;;;;;;;;10.03;90.05;94990.09;5047777;28;19935;-78
2024/03/09 07:12:53;;;;;;;;;;;;;;;10.16;92.93;95000.16;5065475;28;20154;-74
2024/03/09 07:15:21;;;;;;;;;;;;;;;10.29;89.37;94989.28;5065372;28;19941;-82
2024/03/09 07:17:48;;;;;;;;;;;;;;;10.39;87.82;94978.06;5065304;28;20224;-80
2024/03/09 07:20:16;;;;;;;;;;;;;;;10.50;88.77;94981.56;5065843;28;19952;-80
2024/03/09 07:22:43;;;;;;;;;;;;;;;10.60;88.13;94965.09;5048329;28;20212;-80
2024/03/09 07:25:09;;;;;;;;;;;;;;;10.72;86.29;95052.22;5031726;28;19950;-80
2024/03/09 07:27:36;;;;;;;;;;;;;;;10.81;87.13;95063.78;5048036;28;19939;-79
2024/03/09 07:30:04;;;;;;;;;;;;;;;10.93;86.69;95082.75;5048081;28;19966;-70
2024/03/09 07:32:31;;;;;;;;;;;;;;;11.04;77.01;95060.00;5065114;28;19948;-74
2024/03/09 07:34:57;;;;;;;;;;;;;;;11.07;80.56;95066.59;5064965;28;20254;-73
2024/03/09 07:37:23;;;;;;;;;;;;;;;11.05;76.90;95064.22;5047100;28;19974;-74
2024/03/09 07:39:49;;;;;;;;;;;;;;;11.02;82.90;95092.78;5065689;28;19944;-74
2024/03/09 07:42:16;;;;;;;;;;;;;;;11.09;81.41;95078.41;5064902;28;19947;-74
2024/03/09 07:44:41;;;;;;;;;;;;;;;11.22;83.01;95084.22;5065342;28;19940;-74
2024/03/09 07:47:08;;;;;;;;;;;;;;;11.28;84.64;95098.97;5064098;28;19937;-74
2024/03/09 07:49:34;;;;;;;;;;;;;;;11.28;84.03;95104.22;5064927;28;19956;-79
2024/03/09 07:52:00;;;;;;;;;;;;;;;11.24;84.58;95101.28;5064660;28;19934;-81
2024/03/09 07:54:26;;;;;;;;;;;;;;;11.18;79.59;95086.56;5046718;28;19970;-79
2024/03/09 07:56:52;;;;;;;;;;;;;;;10.97;79.80;95096.16;5064596;28;19975;-79
2024/03/09 07:59:18;;;;;;;;;;;;;;;10.88;81.37;95098.47;5064636;28;19948;-79
2024/03/09 08:01:45;;;;;;;;;;;;;;;10.89;85.06;95113.16;5063913;28;19938;-81
2024/03/09 08:04:11;;;;;;;;;;;;;;;10.77;81.14;95102.84;5046143;28;19944;-79
2024/03/09 08:06:39;;;;;;;;;;;;;;;10.92;87.73;95117.13;5064496;28;20217;-78
2024/03/09 08:09:05;;;;;;;;;;;;;;;10.95;85.23;95111.34;5064748;28;20124;-73
2024/03/09 08:11:31;;;;;;;;;;;;;;;11.02;84.25;95122.41;5064350;28;19940;-73
2024/03/09 08:13:57;;;;;;;;;;;;;;;10.98;83.74;95113.47;5030827;28;19946;-73
2024/03/09 08:16:23;;;;;;;;;;;;;;;11.15;86.14;95121.19;5064323;28;19937;-73
2024/03/09 08:18:48;;;;;;;;;;;;;;;11.33;84.17;95117.34;5065017;28;20096;-73
2024/03/09 08:21:14;;;;;;;;;;;;;;;11.39;77.41;95097.97;5065005;28;19947;-73
2024/03/09 08:23:42;;;;;;;;;;;;;;;11.42;81.57;95115.03;5064963;28;19937;-73
2024/03/09 08:26:08;;;;;;;;;;;;;;;11.41;75.49;95103.75;5064113;28;19937;-73
2024/03/09 08:28:34;;;;;;;;;;;;;;;11.45;80.73;95111.91;5064518;28;19956;-80
2024/03/09 08:31:01;;;;;;;;;;;;;;;11.44;82.88;95124.22;5063981;28;19953;-82
2024/03/09 08:33:28;;;;;;;;;;;;;;;11.53;81.81;95122.69;5064606;28;19954;-80
2024/03/09 08:35:58;;;;;;;;;;;;;;;11.68;75.55;95103.59;5064432;28;19953;-80
2024/03/09 08:38:24;;;;;;;;;;;;;;;11.71;81.48;95121.44;5063873;28;20269;-81
2024/03/09 08:40:52;;;;;;;;;;;;;;;11.63;77.17;95108.03;5046216;28;19945;-81
2024/03/09 08:43:18;;;;;;;;;;;;;;;11.56;80.24;95127.41;5063933;28;19934;-73
2024/03/09 08:45:47;;;;;;;;;;;;;;;11.89;78.47;95111.56;5064356;28;19939;-79
2024/03/09 08:48:13;;;;;;;;;;;;;;;12.16;79.67;95114.78;5030375;28;19939;-69
2024/03/09 08:50:39;;;;;;;;;;;;;;;12.24;66.64;95099.53;5064023;28;19962;-70
2024/03/09 08:53:05;;;;;;;;;;;;;;;12.21;72.02;95114.00;5063779;28;19948;-69
2024/03/09 08:55:32;;;;;;;;;;;;;;;12.23;76.51;95119.00;5063733;28;19933;-70
2024/03/09 08:58:01;;;;;;;;;;;;;;;12.50;77.35;95108.25;5065362;28;20242;-70
2024/03/09 09:00:27;;;;;;;;;;;;;;;12.73;75.79;95105.09;5068428;28;19934;-69
2024/03/09 09:02:56;;;;;;;;;;;;;;;12.76;71.12;95099.28;5050185;28;19984;-74
2024/03/09 09:05:22;;;;;;;;;;;;;;;12.60;75.06;95116.16;5050107;28;19945;-74
2024/03/09 09:07:48;;;;;;;;;;;;;;;12.51;74.27;95102.69;5050741;28;20148;-73
2024/03/09 09:10:15;;;;;;;;;;;;;;;12.65;73.79;95102.19;5067698;28;20136;-74
2024/03/09 09:12:42;;;;;;;;;;;;;;;12.74;68.98;95098.75;5067711;28;19946;-74
2024/03/09 09:15:08;;;;;;;;;;;;;;;12.91;74.68;95103.75;5068212;28;19943;-75
2024/03/09 09:17:34;;;;;;;;;;;;;;;12.92;74.60;95100.06;5067656;28;20241;-74
2024/03/09 09:20:00;;;;;;;;;;;;;;;13.06;74.84;95104.78;5068338;28;20086;-71
2024/03/09 09:22:26;;;;;;;;;;;;;;;13.29;72.12;95088.44;5033985;28;20008;-74
2024/03/09 09:24:52;;;;;;;;;;;;;;;13.32;73.05;95082.63;5033853;28;19938;-70
2024/03/09 09:27:23;;;;;;;;;;;;;;;13.47;73.51;95071.25;5067465;28;19994;-69
2024/03/09 09:29:49;;;;;;;;;;;;;;;13.45;70.17;95064.69;5067859;28;20145;-70
2024/03/09 09:32:15;;;;;;;;;;;;;;;13.62;75.29;95065.13;5068194;28;19943;-70
2024/03/09 09:34:40;;;;;;;;;;;;;;;13.85;73.28;95061.06;5067268;28;19933;-70
2024/03/09 09:37:12;;;;;;;;;;;;;;;14.00;68.12;95060.19;5067089;28;19964;-69
2024/03/09 09:39:40;;;;;;;;;;;;;;;14.11;70.10;95058.28;5067524;28;19942;-74
2024/03/09 09:42:06;;;;;;;;;;;;;;;14.30;71.25;95064.47;5067961;28;19946;-74
2024/03/09 09:44:32;;;;;;;;;;;;;;;14.29;70.52;95060.25;5049305;28;19945;-74
2024/03/09 09:46:58;;;;;;;;;;;;;;;14.34;66.39;95062.06;5067104;28;20243;-74
2024/03/09 09:49:24;;;;;;;;;;;;;;;14.49;69.65;95061.16;5049097;28;19957;-74
2024/03/09 09:51:56;;;;;;;;;;;;;;;14.69;72.11;95063.66;5067545;28;19934;-74
2024/03/09 09:54:24;;;;;;;;;;;;;;;14.77;67.90;95062.28;5067001;28;19938;-75
2024/03/09 09:56:53;;;;;;;;;;;;;;;14.87;66.78;95061.41;5066950;28;20191;-75
2024/03/09 09:59:19;;;;;;;;;;;;;;;14.89;62.28;95054.78;5067389;28;19939;-74
2024/03/09 10:01:46;;;;;;;;;;;;;;;14.88;64.66;95057.69;5066878;28;20231;-70
2024/03/09 10:04:12;;;;;;;;;;;;;;;14.96;66.64;95063.16;5066835;28;19935;-70
2024/03/09 10:06:38;;;;;;;;;;;;;;;15.15;71.48;95065.84;5049027;28;20008;-69
2024/03/09 10:09:04;;;;;;;;;;;;;;;15.31;65.21;95052.50;5066329;28;19961;-69
2024/03/09 10:11:31;;;;;;;;;;;;;;;15.27;67.94;95048.84;5066281;28;19942;-70
2024/03/09 10:13:57;;;;;;;;;;;;;;;15.39;67.47;95046.56;5067348;28;20104;-70
2024/03/09 10:16:30;;;;;;;;;;;;;;;15.58;67.15;95042.13;5033304;28;19945;-75
2024/03/09 10:18:57;;;;;;;;;;;;;;;15.77;64.32;95025.50;5067044;28;19942;-71
2024/03/09 10:21:41;;;;;;;;;;;;;;;15.83;65.26;95019.91;5032157;28;19951;-72
2024/03/09 10:24:07;;;;;;;;;;;;;;;15.79;63.53;95015.44;5049503;28;19935;-71
2024/03/09 10:26:34;;;;;;;;;;;;;;;15.86;61.92;95017.75;5032130;28;20154;-71
2024/03/09 10:29:00;;;;;;;;;;;;;;;16.00;59.00;95021.22;5048426;28;19956;-71
2024/03/09 10:31:27;;;;;;;;;;;;;;;16.08;54.59;95015.28;5048377;28;19937;-71
2024/03/09 10:33:53;;;;;;;;;;;;;;;16.16;55.44;95019.16;5049120;28;20228;-74
2024/03/09 10:36:21;;;;;;;;;;;;;;;16.27;58.30;95020.56;5066155;28;19946;-79
2024/03/09 10:38:49;;;;;;;;;;;;;;;16.38;51.78;95011.41;5066108;28;19944;-80
2024/03/09 10:41:16;;;;;;;;;;;;;;;16.29;49.16;95014.97;5048196;28;19945;-79
2024/03/09 10:43:42;;;;;;;;;;;;;;;16.19;47.52;95010.63;5066059;28;20103;-79
2024/03/09 10:46:10;;;;;;;;;;;;;;;16.08;49.92;95010.00;5048930;28;19982;-79
2024/03/09 10:48:40;;;;;;;;;;;;;;;16.00;49.37;95011.47;5049023;28;19948;-79
2024/03/09 10:51:16;;;;;;;;;;;;;;;15.85;47.10;95010.88;5065784;28;20236;-79
2024/03/09 10:53:42;;;;;;;;;;;;;;;15.71;46.54;94997.56;5066101;28;19934;-71
2024/03/09 10:56:20;;;;;;;;;;;;;;;15.46;43.91;94999.47;5066310;28;19935;-80
2024/03/09 10:58:46;;;;;;;;;;;;;;;15.46;46.20;94998.69;5031746;28;19936;-79
2024/03/09 11:01:15;;;;;;;;;;;;;;;15.70;47.67;95002.06;5066392;28;20085;-79
2024/03/09 11:03:48;;;;;;;;;;;;;;;15.76;47.97;94990.38;5065584;28;20122;-80
2024/03/09 11:06:17;;;;;;;;;;;;;;;15.79;42.43;94989.81;5048389;28;19941;-80
2024/03/09 11:08:43;;;;;;;;;;;;;;;15.76;44.13;94986.94;5048170;28;19953;-80
2024/03/09 11:11:09;;;;;;;;;;;;;;;15.81;45.63;94985.03;5047985;28;19969;-70
2024/03/09 11:13:35;;;;;;;;;;;;;;;16.05;44.76;94978.84;5031776;28;19942;-74
2024/03/09 11:16:03;;;;;;;;;;;;;;;16.30;44.66;94982.97;5047593;28;20251;-74
2024/03/09 11:18:30;;;;;;;;;;;;;;;16.37;41.35;94972.78;5030918;28;19946;-74
2024/03/09 11:20:59;;;;;;;;;;;;;;;16.49;45.62;94974.97;5047583;28;19941;-74
2024/03/09 11:23:25;;;;;;;;;;;;;;;16.77;44.56;94978.44;5046960;28;20233;-74
2024/03/09 11:25:53;;;;;;;;;;;;;;;17.01;42.20;94975.63;5065397;28;19935;-73
2024/03/09 11:28:27;;;;;;;;;;;;;;;17.07;42.28;94973.66;5065628;28;19947;-70
2024/03/09 11:30:56;;;;;;;;;;;;;;;17.04;38.97;94968.97;5065250;28;19951;-70
2024/03/09 11:33:22;;;;;;;;;;;;;;;16.98;39.36;94973.56;5065491;28;19935;-73
2024/03/09 11:35:49;;;;;;;;;;;;;;;16.79;39.74;94960.38;5065392;28;19936;-74
2024/03/09 11:38:18;;;;;;;;;;;;;;;16.62;39.83;94966.25;5064776;28;19971;-73
2024/03/09 11:40:46;;;;;;;;;;;;;;;16.75;39.45;94962.03;5065359;28;20134;-74
2024/03/09 11:43:14;;;;;;;;;;;;;;;16.66;37.79;94953.22;5064813;28;19950;-74
2024/03/09 11:45:40;;;;;;;;;;;;;;;16.55;40.10;94949.22;5047536;28;20243;-74
2024/03/09 11:48:08;;;;;;;;;;;;;;;16.66;39.87;94933.94;5065268;28;19946;-75
2024/03/09 11:50:39;;;;;;;;;;;;;;;16.61;39.40;94937.47;5065113;28;20108;-79
2024/03/09 11:53:09;;;;;;;;;;;;;;;16.66;39.86;94931.28;5065406;28;20117;-78
2024/03/09 11:55:41;;;;;;;;;;;;;;;16.70;39.38;94919.03;5064588;28;19946;-78
2024/03/09 11:58:10;;;;;;;;;;;;;;;16.80;38.52;94921.50;5064521;28;19943;-79
2024/03/09 12:00:35;;;;;;;;;;;;;;;16.94;41.08;94921.50;5065027;28;19942;-79
2024/03/09 12:03:13;;;;;;;;;;;;;;;16.90;41.63;94923.16;5065005;28;20013;-79
2024/03/09 12:05:40;;;;;;;;;;;;;;;16.65;38.01;94925.19;5065159;28;19939;-70
2024/03/09 12:08:09;;;;;;;;;;;;;;;16.47;40.34;94926.06;5064806;28;19953;-72
2024/03/09 12:10:35;;;;;;;;;;;;;;;16.50;41.10;94926.25;5064748;28;20189;-71
2024/03/09 12:13:01;;;;;;;;;;;;;;;16.52;36.55;94925.97;5030705;28;19945;-71
2024/03/09 12:15:28;;;;;;;;;;;;;;;16.47;35.25;94916.25;5046428;28;19944;-71
2024/03/09 12:17:55;;;;;;;;;;;;;;;16.49;37.12;94921.28;5064283;28;19938;-71
2024/03/09 12:20:21;;;;;;;;;;;;;;;16.50;39.35;94910.38;5046218;28;19942;-71
2024/03/09 12:22:47;;;;;;;;;;;;;;;16.53;39.99;94917.75;5046345;28;19946;-71
2024/03/09 12:25:12;;;;;;;;;;;;;;;16.43;36.53;94899.41;5064259;28;19933;-68
2024/03/09 12:27:39;;;;;;;;;;;;;;;16.36;35.56;94905.09;5029841;28;19936;-68
2024/03/09 12:30:07;;;;;;;;;;;;;;;16.29;37.19;94890.66;5064621;28;19955;-68
2024/03/09 12:32:33;;;;;;;;;;;;;;;16.11;38.26;94893.09;5046323;28;19935;-69
2024/03/09 12:35:00;;;;;;;;;;;;;;;15.91;37.65;94894.19;5064257;28;19939;-70
2024/03/09 12:37:26;;;;;;;;;;;;;;;15.85;37.12;94911.22;5063962;28;20158;-70
2024/03/09 12:40:11;;;;;;;;;;;;;;;15.72;37.70;94906.66;5064201;28;19938;-70
2024/03/09 12:42:42;;;;;;;;;;;;;;;15.53;36.44;94902.16;5063907;28;19944;-73
2024/03/09 12:45:24;;;;;;;;;;;;;;;15.39;37.82;94909.22;5046836;28;19948;-74
2024/03/09 12:47:53;;;;;;;;;;;;;;;15.29;39.02;94910.16;5063562;28;20129;-74